createdAt,value
2017-08-02T00:00:12.378Z,24.99
2017-08-02T00:02:37.747Z,24.99
2017-08-02T00:04:53.600Z,25.03
2017-08-02T00:07:09.419Z,25.03
2017-08-02T00:09:25.311Z,25.06
2017-08-02T00:11:49.581Z,24.93
2017-08-02T00:14:20.700Z,25.06
2017-08-02T00:16:44.973Z,25.01
2017-08-02T00:19:09.253Z,24.97
2017-08-02T00:21:33.544Z,24.94
2017-08-02T00:23:10.299Z,24.96
2017-08-02T00:25:34.589Z,24.93
2017-08-02T00:27:58.878Z,25.07
2017-08-02T00:30:23.167Z,24.99
2017-08-02T00:32:30.557Z,24.93
2017-08-02T00:34:54.861Z,24.71
2017-08-02T00:37:19.164Z,24.88
2017-08-02T00:39:43.461Z,24.75
2017-08-02T00:42:07.784Z,24.89
2017-08-02T00:44:32.070Z,25.07
2017-08-02T00:46:56.413Z,25.07
2017-08-02T00:49:20.754Z,24.86
2017-08-02T00:51:45.050Z,24.88
2017-08-02T00:54:09.315Z,24.97
2017-08-02T00:56:25.141Z,24.99
2017-08-02T00:58:49.434Z,24.99
2017-08-02T01:01:13.758Z,25.03
2017-08-02T01:03:38.195Z,25.01
2017-08-02T01:06:02.495Z,24.82
2017-08-02T01:08:26.793Z,24.97
2017-08-02T01:10:42.687Z,25.14
2017-08-02T01:12:58.511Z,25.16
2017-08-02T01:15:22.928Z,25.14
2017-08-02T01:17:47.310Z,25.06
2017-08-02T01:20:11.617Z,25.03
2017-08-02T01:22:35.944Z,25.21
2017-08-02T01:25:00.244Z,25.14
2017-08-02T01:27:24.549Z,25.16
2017-08-02T01:29:48.792Z,25.19
2017-08-02T01:31:51.011Z,25.16
2017-08-02T01:34:15.342Z,25.24
2017-08-02T01:36:39.605Z,25.26
2017-08-02T01:39:03.904Z,25.31
2017-08-02T01:40:49.030Z,25.24
2017-08-02T01:43:13.396Z,25.26
2017-08-02T01:45:37.698Z,25.22
2017-08-02T01:48:01.993Z,25.14
2017-08-02T01:50:04.732Z,25.04
2017-08-02T01:52:20.629Z,25.14
2017-08-02T01:54:44.923Z,25.25
2017-08-02T01:57:09.248Z,25.18
2017-08-02T01:59:40.417Z,25.19
2017-08-02T02:02:04.736Z,25.19
2017-08-02T02:04:28.992Z,25.25
2017-08-02T02:06:39.936Z,25.26
2017-08-02T02:09:04.379Z,25.19
2017-08-02T02:11:28.657Z,25.21
2017-08-02T02:13:52.974Z,25.3
2017-08-02T02:16:17.314Z,25.3
2017-08-02T02:18:35.242Z,25.26
2017-08-02T02:21:00.671Z,25
2017-08-02T02:23:16.539Z,25.14
2017-08-02T02:25:40.847Z,25.21
2017-08-02T02:28:05.149Z,25.29
2017-08-02T02:30:21.095Z,25.06
2017-08-02T02:32:36.960Z,24.96
2017-08-02T02:34:52.806Z,25.04
2017-08-02T02:37:17.079Z,24.93
2017-08-02T02:39:32.842Z,24.99
2017-08-02T02:41:58.268Z,25.04
2017-08-02T02:44:22.574Z,24.86
2017-08-02T02:46:46.870Z,25
2017-08-02T02:48:58.111Z,24.93
2017-08-02T02:51:22.439Z,24.89
2017-08-02T02:53:46.724Z,24.84
2017-08-02T02:56:11.013Z,25
2017-08-02T02:58:35.330Z,24.81
2017-08-02T03:00:59.619Z,24.63
2017-08-02T03:03:23.877Z,24.62
2017-08-02T03:05:48.113Z,24.53
2017-08-02T03:07:59.370Z,24.65
2017-08-02T03:10:23.667Z,24.71
2017-08-02T03:12:47.906Z,24.55
2017-08-02T03:15:12.116Z,24.59
2017-08-02T03:17:36.377Z,24.66
2017-08-02T03:20:00.608Z,24.79
2017-08-02T03:22:31.891Z,24.78
2017-08-02T03:24:56.129Z,24.77
2017-08-02T03:27:20.466Z,24.62
2017-08-02T03:29:44.856Z,24.55
2017-08-02T03:32:10.283Z,24.61
2017-08-02T03:34:34.518Z,24.81
2017-08-02T03:36:58.808Z,24.77
2017-08-02T03:39:23.099Z,24.78
2017-08-02T03:41:49.463Z,24.78
2017-08-02T03:44:05.314Z,24.66
2017-08-02T03:46:29.576Z,24.74
2017-08-02T03:48:53.873Z,24.79
2017-08-02T03:51:18.140Z,24.74
2017-08-02T03:53:42.419Z,24.69
2017-08-02T03:56:06.681Z,24.81
2017-08-02T03:58:30.957Z,24.69
2017-08-02T04:00:46.752Z,24.81
2017-08-02T04:03:11.057Z,24.75
2017-08-02T04:05:35.326Z,24.78
2017-08-02T04:07:38.682Z,24.62
2017-08-02T04:10:02.989Z,24.75
2017-08-02T04:12:18.817Z,24.77
2017-08-02T04:16:20.186Z,24.46
2017-08-02T04:18:44.411Z,24.48
2017-08-02T04:21:00.206Z,24.48
2017-08-02T04:23:24.434Z,24.5
2017-08-02T04:25:48.676Z,24.48
2017-08-02T04:28:12.922Z,24.41
2017-08-02T04:30:37.210Z,24.65
2017-08-02T04:33:01.470Z,24.68
2017-08-02T04:35:26.778Z,24.47
2017-08-02T04:37:51.052Z,24.81
2017-08-02T04:40:15.312Z,24.75
2017-08-02T04:42:31.102Z,24.71
2017-08-02T04:44:55.429Z,24.99
2017-08-02T04:47:19.732Z,24.85
2017-08-02T04:49:43.983Z,25.01
2017-08-02T04:52:08.256Z,25.22
2017-08-02T04:54:32.680Z,25.4
2017-08-02T04:56:48.527Z,25.36
2017-08-02T04:59:12.854Z,25.55
2017-08-02T05:01:15.614Z,25.41
2017-08-02T05:03:39.939Z,25.46
2017-08-02T05:06:04.213Z,25.54
2017-08-02T05:08:28.549Z,25.89
2017-08-02T05:10:52.790Z,25.67
2017-08-02T05:13:17.129Z,25.71
2017-08-02T05:15:41.437Z,25.71
2017-08-02T05:18:05.775Z,25.66
2017-08-02T05:20:30.087Z,25.67
2017-08-02T05:22:54.532Z,25.62
2017-08-02T05:25:10.434Z,25.63
2017-08-02T05:27:34.825Z,25.62
2017-08-02T05:29:37.246Z,25.37
2017-08-02T05:32:01.605Z,25.49
2017-08-02T05:34:25.983Z,25.51
2017-08-02T05:36:41.782Z,25.66
2017-08-02T05:38:57.671Z,25.62
2017-08-02T05:41:30.625Z,26.04
2017-08-02T05:43:54.982Z,26.27
2017-08-02T05:46:19.320Z,25.99
2017-08-02T05:48:43.747Z,25.88
2017-08-02T05:51:08.142Z,26.06
2017-08-02T05:53:32.530Z,25.95
2017-08-02T05:55:56.872Z,26.08
2017-08-02T05:58:21.235Z,26.34
2017-08-02T06:00:45.652Z,26.53
2017-08-02T06:03:10.059Z,27.08
2017-08-02T06:05:34.523Z,27.3
2017-08-02T06:07:50.510Z,27.58
2017-08-02T06:10:14.989Z,28.35
2017-08-02T06:12:39.593Z,30.23
2017-08-02T06:15:04.150Z,31
2017-08-02T06:17:28.787Z,31.52
2017-08-02T06:20:02.917Z,33.91
2017-08-02T06:22:27.854Z,33.6
2017-08-02T06:24:52.587Z,33.77
2017-08-02T06:27:17.657Z,34.46
2017-08-02T06:29:42.683Z,33.44
2017-08-02T06:31:20.091Z,32.79
2017-08-02T06:34:04.095Z,31.47
2017-08-02T06:36:29.603Z,30.44
2017-08-02T06:39:01.431Z,29.67
2017-08-02T06:41:26.739Z,29.59
2017-08-02T06:43:51.654Z,29.21
2017-08-02T06:46:16.660Z,29.5
2017-08-02T06:48:41.337Z,29.13
2017-08-02T06:50:52.575Z,28.67
2017-08-02T06:53:17.252Z,28.52
2017-08-02T06:55:19.585Z,28.27
2017-08-02T06:57:44.335Z,28.38
2017-08-02T07:00:09.008Z,28.37
2017-08-02T07:02:33.723Z,28.09
2017-08-02T07:04:58.341Z,27.76
2017-08-02T07:07:23.051Z,27.75
2017-08-02T07:09:50.285Z,27.73
2017-08-02T07:12:14.887Z,27.58
2017-08-02T07:14:39.487Z,28.25
2017-08-02T07:17:04.159Z,28.62
2017-08-02T07:22:02.527Z,28.96
2017-08-02T07:24:27.054Z,28.96
2017-08-02T07:26:51.618Z,28.78
2017-08-02T07:29:16.227Z,28.83
2017-08-02T07:31:40.819Z,29.02
2017-08-02T07:34:05.448Z,28.56
2017-08-02T07:36:19.843Z,28.55
2017-08-02T07:38:44.656Z,28.47
2017-08-02T07:41:09.431Z,28.7
2017-08-02T07:43:34.017Z,29.49
2017-08-02T07:45:58.879Z,30.99
2017-08-02T07:48:23.997Z,32.19
2017-08-02T07:50:51.531Z,32.11
2017-08-02T07:53:16.210Z,32.91
2017-08-02T07:55:43.233Z,33.01
2017-08-02T07:58:08.204Z,33.33
2017-08-02T08:00:33.248Z,33.04
2017-08-02T08:02:52.255Z,32.67
2017-08-02T08:05:17.320Z,32.2
2017-08-02T08:07:42.311Z,32.3
2017-08-02T08:10:07.509Z,31.93
2017-08-02T08:12:32.505Z,31.97
2017-08-02T08:14:58.264Z,32.16
2017-08-02T08:17:23.114Z,31.92
2017-08-02T08:19:49.195Z,31.23
2017-08-02T08:22:14.283Z,30.92
2017-08-02T08:24:40.265Z,31.13
2017-08-02T08:27:04.957Z,31.37
2017-08-02T08:29:29.848Z,30.92
2017-08-02T08:31:55.340Z,32.82
2017-08-02T08:34:20.439Z,32.56
2017-08-02T08:36:45.442Z,32.67
2017-08-02T08:39:10.481Z,32.29
2017-08-02T08:41:35.379Z,32.38
2017-08-02T08:44:00.663Z,32.81
2017-08-02T08:46:29.811Z,34.69
2017-08-02T08:49:00.992Z,34.91
2017-08-02T08:51:26.174Z,34.13
2017-08-02T08:53:44.009Z,34.29
2017-08-02T08:56:09.651Z,33.51
2017-08-02T08:58:35.791Z,33.05
2017-08-02T09:01:01.166Z,32.44
2017-08-02T09:03:26.179Z,31.47
2017-08-02T09:05:52.629Z,31.39
2017-08-02T09:08:17.699Z,33.44
2017-08-02T09:10:43.965Z,34.56
2017-08-02T09:13:09.564Z,38.07
2017-08-02T09:15:35.324Z,38.22
2017-08-02T09:18:03.088Z,35.88
2017-08-02T09:20:28.965Z,36.47
2017-08-02T09:22:54.617Z,35.72
2017-08-02T09:25:21.776Z,34.65
2017-08-02T09:27:47.756Z,35.42
2017-08-02T09:30:14.437Z,35.05
2017-08-02T09:32:42.924Z,34.98
2017-08-02T09:35:15.093Z,34.6
2017-08-02T09:37:40.406Z,34.13
2017-08-02T09:40:07.710Z,34.7
2017-08-02T09:42:34.118Z,34.83
2017-08-02T09:45:01.605Z,35.38
2017-08-02T09:47:27.982Z,34.97
2017-08-02T09:49:54.948Z,34.11
2017-08-02T09:52:22.301Z,34.43
2017-08-02T09:54:49.964Z,34.96
2017-08-02T09:57:16.962Z,34.85
2017-08-02T09:59:45.723Z,34.33
2017-08-02T10:02:11.361Z,36.11
2017-08-02T10:04:45.059Z,34.89
2017-08-02T10:07:11.788Z,36.51
2017-08-02T10:09:37.710Z,37.29
2017-08-02T10:12:03.150Z,37.58
2017-08-02T10:14:20.346Z,37.43
2017-08-02T10:16:47.115Z,38.27
2017-08-02T10:19:12.858Z,38.44
2017-08-02T10:21:40.382Z,39.27
2017-08-02T10:24:06.440Z,38.23
2017-08-02T10:26:32.631Z,37.14
2017-08-02T10:28:59.698Z,37.11
2017-08-02T10:31:27.483Z,36.92
2017-08-02T10:33:55.395Z,37.19
2017-08-02T10:36:22.513Z,36.97
2017-08-02T10:38:57.720Z,37.31
2017-08-02T10:41:27.074Z,37.85
2017-08-02T10:43:52.997Z,37.82
2017-08-02T10:46:23.659Z,37.75
2017-08-02T10:48:49.203Z,37.91
2017-08-02T10:51:17.925Z,37.41
2017-08-02T10:53:43.701Z,36.76
2017-08-02T10:56:11.680Z,36.53
2017-08-02T10:58:38.173Z,35.59
2017-08-02T11:01:05.636Z,35.34
2017-08-02T11:03:32.484Z,35.26
2017-08-02T11:05:58.643Z,34.93
2017-08-02T11:08:27.301Z,34.65
2017-08-02T11:10:55.811Z,34.09
2017-08-02T11:15:49.432Z,34.78
2017-08-02T11:18:14.740Z,35.08
2017-08-02T11:20:40.287Z,35.05
2017-08-02T11:23:05.685Z,34.71
2017-08-02T11:25:31.165Z,34.55
2017-08-02T11:27:56.621Z,34.5
2017-08-02T11:30:23.188Z,34.7
2017-08-02T11:32:49.073Z,34.97
2017-08-02T11:35:16.910Z,35.22
2017-08-02T11:37:45.905Z,35.57
2017-08-02T11:40:11.138Z,35.52
2017-08-02T11:42:37.352Z,35.08
2017-08-02T11:45:03.137Z,35.59
2017-08-02T11:47:26.434Z,35.63
2017-08-02T11:49:54.823Z,34.86
2017-08-02T11:52:20.412Z,35.15
2017-08-02T11:54:49.158Z,35.01
2017-08-02T11:57:06.394Z,34.7
2017-08-02T11:59:31.960Z,35.03
2017-08-02T12:01:59.382Z,35.13
2017-08-02T12:04:25.789Z,35.23
2017-08-02T12:06:51.874Z,34.76
2017-08-02T12:09:17.294Z,35.04
2017-08-02T12:11:42.740Z,35.45
2017-08-02T12:13:54.800Z,35.04
2017-08-02T12:16:06.302Z,35.01
2017-08-02T12:18:32.925Z,34.58
2017-08-02T12:20:58.506Z,34.56
2017-08-02T12:23:24.489Z,34.11
2017-08-02T12:25:50.046Z,33.89
2017-08-02T12:28:16.170Z,33.4
2017-08-02T12:30:41.592Z,33.54
2017-08-02T12:33:06.942Z,34.06
2017-08-02T12:35:33.486Z,34.63
2017-08-02T12:37:59.411Z,33.97
2017-08-02T12:40:25.433Z,33.51
2017-08-02T12:42:50.671Z,33.51
2017-08-02T12:45:16.001Z,33.92
2017-08-02T12:47:42.026Z,34.78
2017-08-02T12:50:07.377Z,34.76
2017-08-02T12:52:33.124Z,35.3
2017-08-02T12:54:58.878Z,35.27
2017-08-02T12:57:26.012Z,35.39
2017-08-02T12:59:52.480Z,34.65
2017-08-02T13:02:18.832Z,34.75
2017-08-02T13:04:45.646Z,34.89
2017-08-02T13:07:13.223Z,34.6
2017-08-02T13:09:39.323Z,34.69
2017-08-02T13:12:04.683Z,34.58
2017-08-02T13:14:30.105Z,34.71
2017-08-02T13:16:55.275Z,34.86
2017-08-02T13:19:29.135Z,34.62
2017-08-02T13:21:54.596Z,34.83
2017-08-02T13:24:21.504Z,34.78
2017-08-02T13:26:47.780Z,35.34
2017-08-02T13:29:14.622Z,35.38
2017-08-02T13:31:43.519Z,35.49
2017-08-02T13:34:15.496Z,35.74
2017-08-02T13:36:41.033Z,35.63
2017-08-02T13:39:06.329Z,34.71
2017-08-02T13:41:32.161Z,34.31
2017-08-02T13:43:57.671Z,34.13
2017-08-02T13:46:23.841Z,34.06
2017-08-02T13:48:49.041Z,34.1
2017-08-02T13:51:14.635Z,34.59
2017-08-02T13:53:40.855Z,34.65
2017-08-02T13:56:07.239Z,34.4
2017-08-02T13:58:32.516Z,34.55
2017-08-02T14:00:57.754Z,34.43
2017-08-02T14:02:34.808Z,34.35
2017-08-02T14:05:00.344Z,33.67
2017-08-02T14:07:26.745Z,33.87
2017-08-02T14:09:53.195Z,34.22
2017-08-02T14:12:18.413Z,34.25
2017-08-02T14:14:43.722Z,34.03
2017-08-02T14:17:09.410Z,34.44
2017-08-02T14:19:36.054Z,34.63
2017-08-02T14:22:01.359Z,34.59
2017-08-02T14:24:26.928Z,34.58
2017-08-02T14:26:52.543Z,34.46
2017-08-02T14:29:18.581Z,34.4
2017-08-02T14:31:44.697Z,34.37
2017-08-02T14:34:12.687Z,34.29
2017-08-02T14:36:37.696Z,33.85
2017-08-02T14:39:03.700Z,33.94
2017-08-02T14:41:29.130Z,33.97
2017-08-02T14:43:54.752Z,34.02
2017-08-02T14:46:20.529Z,34.43
2017-08-02T14:48:45.710Z,34.59
2017-08-02T14:51:10.963Z,35.07
2017-08-02T14:53:36.454Z,34.86
2017-08-02T14:56:01.691Z,34.85
2017-08-02T14:58:26.897Z,34.65
2017-08-02T15:00:52.792Z,35.08
2017-08-02T15:03:18.690Z,35.04
2017-08-02T15:05:44.751Z,35.04
2017-08-02T15:08:10.007Z,35.1
2017-08-02T15:10:35.756Z,34.98
2017-08-02T15:13:00.678Z,35.12
2017-08-02T15:15:29.025Z,35.35
2017-08-02T15:17:56.358Z,34.78
2017-08-02T15:20:22.782Z,34.55
2017-08-02T15:22:48.022Z,34.85
2017-08-02T15:25:13.325Z,34.59
2017-08-02T15:27:38.833Z,34.14
2017-08-02T15:30:04.025Z,34.69
2017-08-02T15:32:29.625Z,34.59
2017-08-02T15:34:54.837Z,34.75
2017-08-02T15:37:20.082Z,34.85
2017-08-02T15:39:45.236Z,35.3
2017-08-02T15:42:10.386Z,35.19
2017-08-02T15:44:35.589Z,34.96
2017-08-02T15:47:00.742Z,34.89
2017-08-02T15:49:25.919Z,35.08
2017-08-02T15:51:51.070Z,34.94
2017-08-02T15:54:16.289Z,34.63
2017-08-02T15:56:41.440Z,34.53
2017-08-02T15:59:06.591Z,34.59
2017-08-02T16:01:31.810Z,34.62
2017-08-02T16:03:56.948Z,34.62
2017-08-02T16:06:22.118Z,34.55
2017-08-02T16:08:47.264Z,34.46
2017-08-02T16:11:12.421Z,34.51
2017-08-02T16:13:37.710Z,34.65
2017-08-02T16:16:02.881Z,34.51
2017-08-02T16:18:28.005Z,34.58
2017-08-02T16:20:53.181Z,34.78
2017-08-02T16:23:19.378Z,34.62
2017-08-02T16:25:44.506Z,34.65
2017-08-02T16:28:09.758Z,34.24
2017-08-02T16:30:34.874Z,34.33
2017-08-02T16:33:00.184Z,34.09
2017-08-02T16:35:25.244Z,33.88
2017-08-02T16:37:50.463Z,33.91
2017-08-02T16:39:53.194Z,34.04
2017-08-02T16:42:18.373Z,34.26
2017-08-02T16:44:43.491Z,34
2017-08-02T16:46:46.265Z,34.03
2017-08-02T16:49:03.668Z,34.19
2017-08-02T16:51:28.940Z,33.69
2017-08-02T16:53:54.083Z,33.72
2017-08-02T16:56:19.277Z,33.87
2017-08-02T16:58:44.820Z,33.69
2017-08-02T17:01:09.754Z,33.69
2017-08-02T17:03:34.767Z,33.69
2017-08-02T17:06:00.014Z,33.54
2017-08-02T17:08:25.079Z,33.51
2017-08-02T17:10:50.177Z,33.31
2017-08-02T17:13:15.318Z,33.42
2017-08-02T17:15:40.373Z,33.03
2017-08-02T17:18:05.100Z,32.73
2017-08-02T17:20:30.211Z,32.6
2017-08-02T17:22:55.288Z,32.63
2017-08-02T17:25:20.171Z,32.78
2017-08-02T17:27:45.145Z,32.56
2017-08-02T17:30:10.352Z,32.49
2017-08-02T17:32:35.629Z,32.71
2017-08-02T17:35:00.684Z,32.79
2017-08-02T17:37:25.838Z,32.82
2017-08-02T17:39:51.060Z,32.78
2017-08-02T17:42:16.253Z,32.79
2017-08-02T17:44:40.964Z,32.75
2017-08-02T17:47:05.923Z,32.72
2017-08-02T17:49:30.896Z,32.57
2017-08-02T17:51:55.816Z,32.57
2017-08-02T17:54:20.734Z,32.81
2017-08-02T17:56:45.702Z,32.51
2017-08-02T17:59:10.636Z,32.59
2017-08-02T18:01:35.631Z,32.64
2017-08-02T18:04:00.570Z,32.57
2017-08-02T18:06:25.662Z,32.3
2017-08-02T18:08:50.519Z,32.02
2017-08-02T18:11:15.536Z,32.31
2017-08-02T18:13:40.385Z,32.15
2017-08-02T18:15:51.763Z,32.04
2017-08-02T18:18:16.804Z,31.77
2017-08-02T18:20:41.806Z,31.41
2017-08-02T18:23:06.645Z,31.64
2017-08-02T18:25:31.552Z,31.6
2017-08-02T18:27:56.424Z,31.57
2017-08-02T18:30:21.398Z,31.6
2017-08-02T18:32:47.254Z,31.6
2017-08-02T18:35:12.188Z,31.5
2017-08-02T18:37:36.951Z,31.52
2017-08-02T18:40:01.877Z,31.48
2017-08-02T18:42:26.805Z,31.15
2017-08-02T18:44:51.763Z,31.05
2017-08-02T18:47:16.619Z,30.95
2017-08-02T18:49:41.482Z,31
2017-08-02T18:52:06.358Z,30.98
2017-08-02T18:54:31.965Z,30.89
2017-08-02T18:57:02.297Z,30.78
2017-08-02T18:59:26.877Z,30.85
2017-08-02T19:02:01.836Z,30.77
2017-08-02T19:04:32.770Z,30.65
2017-08-02T19:07:00.392Z,30.7
2017-08-02T19:09:41.020Z,30.62
2017-08-02T19:12:06.006Z,30.4
2017-08-02T19:14:31.462Z,29.86
2017-08-02T19:16:56.259Z,29.64
2017-08-02T19:19:22.508Z,29.8
2017-08-02T19:21:47.837Z,29.95
2017-08-02T19:24:12.848Z,30.02
2017-08-02T19:26:48.866Z,30.1
2017-08-02T19:29:18.496Z,30.06
2017-08-02T19:31:43.779Z,29.76
2017-08-02T19:34:09.042Z,29.61
2017-08-02T19:46:54.255Z,28.71
2017-08-02T19:49:19.622Z,28.68
2017-08-02T19:51:44.728Z,28.64
2017-08-02T19:54:10.321Z,28.19
2017-08-02T19:56:36.151Z,28.31
2017-08-02T19:59:03.282Z,28.31
2017-08-02T20:01:28.351Z,28.41
2017-08-02T20:03:54.713Z,28.15
2017-08-02T20:09:30.886Z,28.23
2017-08-02T20:11:56.481Z,28.31
2017-08-02T20:14:23.853Z,28.31
2017-08-02T20:16:53.617Z,28
2017-08-02T20:19:19.257Z,28.16
2017-08-02T20:21:45.332Z,27.93
2017-08-02T20:24:09.992Z,27.97
2017-08-02T20:26:34.649Z,27.75
2017-08-02T20:28:59.259Z,27.83
2017-08-02T20:31:23.866Z,27.81
2017-08-02T20:33:48.448Z,27.9
2017-08-02T20:36:12.932Z,27.57
2017-08-02T20:38:37.679Z,27.57
2017-08-02T20:41:02.142Z,27.72
2017-08-02T20:43:26.788Z,27.6
2017-08-02T20:45:51.567Z,27.57
2017-08-02T20:48:16.046Z,27.53
2017-08-02T20:50:40.643Z,27.33
2017-08-02T20:53:05.177Z,27.28
2017-08-02T20:55:29.765Z,27.29
2017-08-02T20:57:54.444Z,26.96
2017-08-02T21:00:19.088Z,26.88
2017-08-02T21:02:43.575Z,26.98
2017-08-02T21:05:08.154Z,26.88
2017-08-02T21:07:32.785Z,26.86
2017-08-02T21:09:57.418Z,26.97
2017-08-02T21:12:22.081Z,26.78
2017-08-02T21:14:46.480Z,26.71
2017-08-02T21:17:11.023Z,26.85
2017-08-02T21:19:35.786Z,26.96
2017-08-02T21:22:00.317Z,27
2017-08-02T21:24:24.699Z,26.97
2017-08-02T21:26:49.170Z,26.97
2017-08-02T21:29:13.614Z,26.81
2017-08-02T21:31:39.702Z,26.92
2017-08-02T21:34:04.264Z,26.97
2017-08-02T21:36:28.860Z,26.93
2017-08-02T21:38:53.398Z,26.71
2017-08-02T21:41:17.835Z,26.44
2017-08-02T21:43:42.296Z,26.42
2017-08-02T21:46:06.726Z,26.44
2017-08-02T21:48:31.274Z,26.41
2017-08-02T21:50:55.701Z,26.41
2017-08-02T21:52:57.639Z,26.41
2017-08-02T21:55:13.713Z,26.46
2017-08-02T21:57:39.853Z,26.55
2017-08-02T22:00:04.479Z,26.41
2017-08-02T22:02:29.167Z,26.48
2017-08-02T22:04:53.657Z,26.36
2017-08-02T22:07:18.149Z,26.36
2017-08-02T22:09:25.693Z,26.19
2017-08-02T22:11:50.140Z,26.49
2017-08-02T22:14:14.601Z,26.66
2017-08-02T22:16:39.040Z,26.81
2017-08-02T22:19:05.096Z,26.53
2017-08-02T22:21:29.557Z,26.85
2017-08-02T22:23:53.990Z,26.88
2017-08-02T22:26:10.020Z,26.6
2017-08-02T22:28:34.470Z,26.71
2017-08-02T22:30:58.947Z,26.59
2017-08-02T22:33:23.434Z,26.55
2017-08-02T22:35:47.913Z,26.73
2017-08-02T22:38:12.400Z,26.52
2017-08-02T22:40:36.876Z,26.53
2017-08-02T22:43:01.325Z,26.55
2017-08-02T22:45:25.759Z,26.67
2017-08-02T22:47:24.799Z,26.55
2017-08-02T22:49:49.251Z,26.59
2017-08-02T22:52:13.722Z,26.68
2017-08-02T22:54:38.192Z,26.67
2017-08-02T22:56:54.188Z,26.76
2017-08-02T22:59:18.627Z,26.7
2017-08-02T23:01:34.588Z,26.52
2017-08-02T23:03:59.070Z,26.59
2017-08-02T23:06:23.576Z,26.86
2017-08-02T23:08:48.046Z,26.91
2017-08-02T23:11:12.530Z,26.66
2017-08-02T23:13:14.488Z,26.7
2017-08-02T23:15:30.519Z,26.55
2017-08-02T23:17:54.949Z,26.55
2017-08-02T23:19:56.822Z,26.53
2017-08-02T23:22:21.312Z,26.56
2017-08-02T23:24:37.267Z,26.46
2017-08-02T23:26:53.277Z,26.52
2017-08-02T23:29:17.740Z,26.44
2017-08-02T23:31:33.737Z,26.49
2017-08-02T23:33:49.732Z,26.39
2017-08-02T23:36:14.181Z,26.48
2017-08-02T23:38:38.639Z,26.52
2017-08-02T23:41:03.092Z,26.52
2017-08-02T23:43:27.509Z,26.71
2017-08-02T23:45:51.928Z,26.82
2017-08-02T23:48:16.395Z,26.79
2017-08-02T23:50:40.864Z,26.81
2017-08-02T23:53:05.318Z,26.49
2017-08-02T23:55:29.767Z,26.56
2017-08-02T23:57:45.751Z,26.64
